Perryhall, Maryland
Current Conditions -  °F | °C
As of 10:12 PM on Wednesday 22 Oct 2014 (Local Time) from KMTN Reporting Station
Clear Clear  
Wind Chill: 54°   Ceiling: Unl
Heat Index: 54°   Visibility: 10mi
Dew Point: 46°   Wind: 14mph
Humidity: 77%   Direction: 300°WNW
Pressure: 29.91"   Gusts: 18mph
Location:  39.4067°N, 76.447°W
Report Text: KMTN 230212Z AUTO 30012G16KT 10SM CLR 12/08 A2991 RMK AO2
Loading
Personal Weather Stations






























Interactive Weather Map
Tropical Storm Tracking
New forecast layout! Learn more

10-Day Weather Forecast

Advertisements
Track Severe Weather on mobile